sensor_id;sensor_type;location;lat;lon;timestamp;P1;durP1;ratioP1;P2;durP2;ratioP2
53145;SDS011;39042;53.150;5.898;2023-12-07T00:02:15;9.70;;;6.70;;
53145;SDS011;39042;53.150;5.898;2023-12-07T00:04:41;11.90;;;6.47;;
53145;SDS011;39042;53.150;5.898;2023-12-07T00:07:07;10.17;;;6.73;;
53145;SDS011;39042;53.150;5.898;2023-12-07T00:09:33;11.33;;;6.10;;
53145;SDS011;39042;53.150;5.898;2023-12-07T00:11:59;11.50;;;6.80;;
53145;SDS011;39042;53.150;5.898;2023-12-07T00:14:24;11.77;;;6.60;;
53145;SDS011;39042;53.150;5.898;2023-12-07T00:16:50;8.97;;;4.80;;
53145;SDS011;39042;53.150;5.898;2023-12-07T00:19:16;10.00;;;5.00;;
53145;SDS011;39042;53.150;5.898;2023-12-07T00:21:42;11.70;;;6.53;;
53145;SDS011;39042;53.150;5.898;2023-12-07T00:24:07;10.37;;;6.63;;
53145;SDS011;39042;53.150;5.898;2023-12-07T00:26:33;14.37;;;9.50;;
53145;SDS011;39042;53.150;5.898;2023-12-07T00:28:59;12.13;;;6.67;;
53145;SDS011;39042;53.150;5.898;2023-12-07T00:31:25;9.90;;;6.60;;
53145;SDS011;39042;53.150;5.898;2023-12-07T00:33:51;10.93;;;6.87;;
53145;SDS011;39042;53.150;5.898;2023-12-07T00:36:17;10.17;;;7.00;;
53145;SDS011;39042;53.150;5.898;2023-12-07T00:38:43;13.18;;;6.60;;
53145;SDS011;39042;53.150;5.898;2023-12-07T00:41:09;12.97;;;8.63;;
53145;SDS011;39042;53.150;5.898;2023-12-07T00:43:35;13.13;;;8.43;;
53145;SDS011;39042;53.150;5.898;2023-12-07T00:46:00;14.87;;;11.70;;
53145;SDS011;39042;53.150;5.898;2023-12-07T00:48:27;11.27;;;8.15;;
53145;SDS011;39042;53.150;5.898;2023-12-07T00:50:53;12.40;;;8.53;;
53145;SDS011;39042;53.150;5.898;2023-12-07T00:53:19;13.87;;;8.90;;
53145;SDS011;39042;53.150;5.898;2023-12-07T00:55:45;9.20;;;6.43;;
53145;SDS011;39042;53.150;5.898;2023-12-07T00:58:10;14.60;;;8.77;;
53145;SDS011;39042;53.150;5.898;2023-12-07T01:00:36;19.73;;;8.50;;
53145;SDS011;39042;53.150;5.898;2023-12-07T01:03:02;13.43;;;9.35;;
53145;SDS011;39042;53.150;5.898;2023-12-07T01:05:28;12.20;;;6.87;;
53145;SDS011;39042;53.150;5.898;2023-12-07T01:07:54;15.47;;;9.73;;
53145;SDS011;39042;53.150;5.898;2023-12-07T01:10:20;13.67;;;7.47;;
53145;SDS011;39042;53.150;5.898;2023-12-07T01:12:45;15.43;;;8.73;;
53145;SDS011;39042;53.150;5.898;2023-12-07T01:15:11;13.67;;;8.67;;
53145;SDS011;39042;53.150;5.898;2023-12-07T01:17:37;11.13;;;6.95;;
53145;SDS011;39042;53.150;5.898;2023-12-07T01:20:04;13.40;;;7.23;;
53145;SDS011;39042;53.150;5.898;2023-12-07T01:22:37;12.52;;;7.22;;
53145;SDS011;39042;53.150;5.898;2023-12-07T01:25:04;12.85;;;7.13;;
53145;SDS011;39042;53.150;5.898;2023-12-07T01:29:56;11.40;;;6.93;;
53145;SDS011;39042;53.150;5.898;2023-12-07T01:32:22;13.97;;;7.00;;
53145;SDS011;39042;53.150;5.898;2023-12-07T01:34:48;12.67;;;7.73;;
53145;SDS011;39042;53.150;5.898;2023-12-07T01:37:14;13.00;;;6.85;;
53145;SDS011;39042;53.150;5.898;2023-12-07T01:39:41;12.80;;;6.37;;
53145;SDS011;39042;53.150;5.898;2023-12-07T01:42:08;10.10;;;6.40;;
53145;SDS011;39042;53.150;5.898;2023-12-07T01:44:41;16.20;;;7.53;;
53145;SDS011;39042;53.150;5.898;2023-12-07T01:47:43;13.88;;;7.70;;
53145;SDS011;39042;53.150;5.898;2023-12-07T01:51:40;10.82;;;6.28;;
53145;SDS011;39042;53.150;5.898;2023-12-07T01:55:23;11.02;;;5.60;;
53145;SDS011;39042;53.150;5.898;2023-12-07T01:59:11;8.18;;;5.30;;
53145;SDS011;39042;53.150;5.898;2023-12-07T02:25:36;13.88;;;7.65;;
53145;SDS011;39042;53.150;5.898;2023-12-07T02:44:11;12.55;;;7.50;;
53145;SDS011;39042;53.150;5.898;2023-12-07T02:46:37;9.98;;;5.63;;
53145;SDS011;39042;53.150;5.898;2023-12-07T02:49:03;15.10;;;7.85;;
53145;SDS011;39042;53.150;5.898;2023-12-07T02:51:29;9.40;;;5.78;;
53145;SDS011;39042;53.150;5.898;2023-12-07T02:53:55;12.90;;;7.67;;
53145;SDS011;39042;53.150;5.898;2023-12-07T02:56:20;15.07;;;7.90;;
53145;SDS011;39042;53.150;5.898;2023-12-07T02:58:46;12.90;;;7.20;;
53145;SDS011;39042;53.150;5.898;2023-12-07T03:01:12;12.07;;;8.00;;
53145;SDS011;39042;53.150;5.898;2023-12-07T03:03:38;14.90;;;8.10;;
53145;SDS011;39042;53.150;5.898;2023-12-07T03:06:08;14.43;;;8.15;;
53145;SDS011;39042;53.150;5.898;2023-12-07T03:08:34;21.53;;;8.40;;
53145;SDS011;39042;53.150;5.898;2023-12-07T03:11:00;15.40;;;8.20;;
53145;SDS011;39042;53.150;5.898;2023-12-07T03:13:26;14.57;;;7.97;;
53145;SDS011;39042;53.150;5.898;2023-12-07T03:15:52;9.87;;;5.80;;
53145;SDS011;39042;53.150;5.898;2023-12-07T03:18:17;12.23;;;6.43;;
53145;SDS011;39042;53.150;5.898;2023-12-07T03:20:43;16.20;;;7.77;;
53145;SDS011;39042;53.150;5.898;2023-12-07T03:23:09;13.73;;;7.47;;
53145;SDS011;39042;53.150;5.898;2023-12-07T03:25:35;11.27;;;6.23;;
53145;SDS011;39042;53.150;5.898;2023-12-07T03:28:01;15.37;;;7.97;;
53145;SDS011;39042;53.150;5.898;2023-12-07T03:30:26;14.97;;;7.63;;
53145;SDS011;39042;53.150;5.898;2023-12-07T03:32:54;14.25;;;7.78;;
53145;SDS011;39042;53.150;5.898;2023-12-07T03:35:20;13.73;;;7.30;;
53145;SDS011;39042;53.150;5.898;2023-12-07T03:37:46;13.87;;;7.83;;
53145;SDS011;39042;53.150;5.898;2023-12-07T03:40:11;15.33;;;7.73;;
53145;SDS011;39042;53.150;5.898;2023-12-07T03:42:38;12.15;;;6.30;;
53145;SDS011;39042;53.150;5.898;2023-12-07T03:45:04;14.47;;;7.70;;
53145;SDS011;39042;53.150;5.898;2023-12-07T03:47:30;13.98;;;7.53;;
53145;SDS011;39042;53.150;5.898;2023-12-07T03:49:56;15.67;;;7.77;;
53145;SDS011;39042;53.150;5.898;2023-12-07T03:52:22;13.87;;;8.03;;
53145;SDS011;39042;53.150;5.898;2023-12-07T03:54:54;14.65;;;7.57;;
53145;SDS011;39042;53.150;5.898;2023-12-07T03:57:25;19.65;;;8.75;;
53145;SDS011;39042;53.150;5.898;2023-12-07T03:59:51;17.30;;;8.37;;
53145;SDS011;39042;53.150;5.898;2023-12-07T04:02:18;17.60;;;8.63;;
53145;SDS011;39042;53.150;5.898;2023-12-07T04:04:44;17.73;;;9.43;;
53145;SDS011;39042;53.150;5.898;2023-12-07T04:07:10;16.83;;;7.67;;
53145;SDS011;39042;53.150;5.898;2023-12-07T04:09:36;20.73;;;9.73;;
53145;SDS011;39042;53.150;5.898;2023-12-07T04:12:02;17.27;;;7.90;;
53145;SDS011;39042;53.150;5.898;2023-12-07T04:14:28;20.80;;;10.27;;
53145;SDS011;39042;53.150;5.898;2023-12-07T04:16:54;24.50;;;10.40;;
53145;SDS011;39042;53.150;5.898;2023-12-07T04:19:19;21.77;;;9.57;;
53145;SDS011;39042;53.150;5.898;2023-12-07T04:21:45;22.23;;;10.13;;
53145;SDS011;39042;53.150;5.898;2023-12-07T04:24:11;19.00;;;9.80;;
53145;SDS011;39042;53.150;5.898;2023-12-07T04:26:37;22.10;;;10.07;;
53145;SDS011;39042;53.150;5.898;2023-12-07T04:29:03;16.60;;;8.07;;
53145;SDS011;39042;53.150;5.898;2023-12-07T04:31:28;22.70;;;10.80;;
53145;SDS011;39042;53.150;5.898;2023-12-07T04:33:54;18.07;;;7.77;;
53145;SDS011;39042;53.150;5.898;2023-12-07T04:36:20;20.43;;;10.40;;
53145;SDS011;39042;53.150;5.898;2023-12-07T04:38:46;27.07;;;11.03;;
53145;SDS011;39042;53.150;5.898;2023-12-07T04:41:12;16.60;;;7.90;;
53145;SDS011;39042;53.150;5.898;2023-12-07T04:43:38;23.33;;;12.13;;
53145;SDS011;39042;53.150;5.898;2023-12-07T04:46:03;19.97;;;10.43;;
53145;SDS011;39042;53.150;5.898;2023-12-07T04:48:29;18.93;;;9.97;;
53145;SDS011;39042;53.150;5.898;2023-12-07T04:50:55;22.27;;;10.07;;
53145;SDS011;39042;53.150;5.898;2023-12-07T04:53:21;17.27;;;7.80;;
53145;SDS011;39042;53.150;5.898;2023-12-07T04:55:47;19.67;;;9.93;;
53145;SDS011;39042;53.150;5.898;2023-12-07T04:58:15;17.75;;;9.95;;
53145;SDS011;39042;53.150;5.898;2023-12-07T05:00:41;14.23;;;7.45;;
53145;SDS011;39042;53.150;5.898;2023-12-07T05:03:07;17.80;;;7.23;;
53145;SDS011;39042;53.150;5.898;2023-12-07T05:05:33;15.40;;;7.53;;
53145;SDS011;39042;53.150;5.898;2023-12-07T05:07:59;17.03;;;8.77;;
53145;SDS011;39042;53.150;5.898;2023-12-07T05:10:24;18.60;;;9.17;;
53145;SDS011;39042;53.150;5.898;2023-12-07T05:12:50;15.37;;;8.80;;
53145;SDS011;39042;53.150;5.898;2023-12-07T05:15:16;16.43;;;9.27;;
53145;SDS011;39042;53.150;5.898;2023-12-07T05:17:42;21.40;;;9.52;;
53145;SDS011;39042;53.150;5.898;2023-12-07T05:20:08;19.23;;;9.07;;
53145;SDS011;39042;53.150;5.898;2023-12-07T05:22:34;19.33;;;9.13;;
53145;SDS011;39042;53.150;5.898;2023-12-07T05:25:00;19.13;;;8.93;;
53145;SDS011;39042;53.150;5.898;2023-12-07T05:27:26;18.60;;;9.97;;
53145;SDS011;39042;53.150;5.898;2023-12-07T05:29:52;15.93;;;8.20;;
53145;SDS011;39042;53.150;5.898;2023-12-07T05:32:17;16.47;;;7.83;;
53145;SDS011;39042;53.150;5.898;2023-12-07T05:34:43;21.13;;;9.77;;
53145;SDS011;39042;53.150;5.898;2023-12-07T05:37:09;19.33;;;9.43;;
53145;SDS011;39042;53.150;5.898;2023-12-07T05:39:35;17.40;;;8.05;;
53145;SDS011;39042;53.150;5.898;2023-12-07T05:42:01;19.13;;;10.00;;
53145;SDS011;39042;53.150;5.898;2023-12-07T05:44:29;21.35;;;10.23;;
53145;SDS011;39042;53.150;5.898;2023-12-07T05:46:55;20.52;;;10.40;;
53145;SDS011;39042;53.150;5.898;2023-12-07T05:49:22;19.90;;;10.48;;
53145;SDS011;39042;53.150;5.898;2023-12-07T05:51:48;25.45;;;11.15;;
53145;SDS011;39042;53.150;5.898;2023-12-07T05:54:14;23.52;;;10.80;;
53145;SDS011;39042;53.150;5.898;2023-12-07T05:56:40;24.77;;;11.37;;
53145;SDS011;39042;53.150;5.898;2023-12-07T05:59:06;27.13;;;12.02;;
53145;SDS011;39042;53.150;5.898;2023-12-07T06:01:32;24.57;;;11.27;;
53145;SDS011;39042;53.150;5.898;2023-12-07T06:03:58;19.63;;;9.43;;
53145;SDS011;39042;53.150;5.898;2023-12-07T06:06:24;27.40;;;11.45;;
53145;SDS011;39042;53.150;5.898;2023-12-07T06:08:50;27.77;;;12.13;;
53145;SDS011;39042;53.150;5.898;2023-12-07T06:11:16;26.45;;;12.35;;
53145;SDS011;39042;53.150;5.898;2023-12-07T06:13:42;25.50;;;11.80;;
53145;SDS011;39042;53.150;5.898;2023-12-07T06:16:11;27.33;;;11.87;;
53145;SDS011;39042;53.150;5.898;2023-12-07T06:18:38;32.80;;;12.70;;
53145;SDS011;39042;53.150;5.898;2023-12-07T06:21:04;30.60;;;12.27;;
53145;SDS011;39042;53.150;5.898;2023-12-07T06:23:30;31.35;;;13.90;;
53145;SDS011;39042;53.150;5.898;2023-12-07T06:25:58;26.52;;;12.75;;
53145;SDS011;39042;53.150;5.898;2023-12-07T06:28:24;24.37;;;10.03;;
53145;SDS011;39042;53.150;5.898;2023-12-07T06:30:50;27.10;;;11.97;;
53145;SDS011;39042;53.150;5.898;2023-12-07T06:33:16;31.70;;;13.43;;
53145;SDS011;39042;53.150;5.898;2023-12-07T06:35:42;31.87;;;13.87;;
53145;SDS011;39042;53.150;5.898;2023-12-07T06:38:08;33.47;;;13.50;;
53145;SDS011;39042;53.150;5.898;2023-12-07T06:40:34;32.10;;;13.10;;
53145;SDS011;39042;53.150;5.898;2023-12-07T06:43:00;25.07;;;10.17;;
53145;SDS011;39042;53.150;5.898;2023-12-07T06:45:26;33.17;;;15.00;;
53145;SDS011;39042;53.150;5.898;2023-12-07T06:47:51;26.53;;;11.37;;
53145;SDS011;39042;53.150;5.898;2023-12-07T06:52:44;31.98;;;14.23;;
53145;SDS011;39042;53.150;5.898;2023-12-07T06:55:11;31.40;;;13.43;;
53145;SDS011;39042;53.150;5.898;2023-12-07T06:57:37;34.47;;;14.25;;
53145;SDS011;39042;53.150;5.898;2023-12-07T07:00:04;32.47;;;13.85;;
53145;SDS011;39042;53.150;5.898;2023-12-07T07:02:36;39.75;;;15.90;;
53145;SDS011;39042;53.150;5.898;2023-12-07T07:05:05;34.97;;;15.00;;
53145;SDS011;39042;53.150;5.898;2023-12-07T07:07:31;37.17;;;15.55;;
53145;SDS011;39042;53.150;5.898;2023-12-07T07:09:58;34.97;;;15.20;;
53145;SDS011;39042;53.150;5.898;2023-12-07T07:12:24;34.30;;;15.07;;
53145;SDS011;39042;53.150;5.898;2023-12-07T07:14:50;45.37;;;16.93;;
53145;SDS011;39042;53.150;5.898;2023-12-07T07:17:16;43.10;;;16.30;;
53145;SDS011;39042;53.150;5.898;2023-12-07T07:19:43;40.95;;;17.15;;
53145;SDS011;39042;53.150;5.898;2023-12-07T07:22:08;36.35;;;15.02;;
53145;SDS011;39042;53.150;5.898;2023-12-07T07:24:34;28.67;;;11.67;;
53145;SDS011;39042;53.150;5.898;2023-12-07T07:27:00;40.17;;;16.10;;
53145;SDS011;39042;53.150;5.898;2023-12-07T07:29:26;32.93;;;12.57;;
53145;SDS011;39042;53.150;5.898;2023-12-07T07:31:53;40.97;;;16.27;;
53145;SDS011;39042;53.150;5.898;2023-12-07T07:34:18;37.40;;;15.53;;
53145;SDS011;39042;53.150;5.898;2023-12-07T07:36:44;47.13;;;18.67;;
53145;SDS011;39042;53.150;5.898;2023-12-07T07:39:10;35.20;;;13.97;;
53145;SDS011;39042;53.150;5.898;2023-12-07T07:41:38;45.55;;;18.20;;
53145;SDS011;39042;53.150;5.898;2023-12-07T07:44:04;35.88;;;15.15;;
53145;SDS011;39042;53.150;5.898;2023-12-07T07:46:30;49.97;;;17.83;;
53145;SDS011;39042;53.150;5.898;2023-12-07T07:48:56;48.17;;;20.07;;
53145;SDS011;39042;53.150;5.898;2023-12-07T07:51:22;49.90;;;20.23;;
53145;SDS011;39042;53.150;5.898;2023-12-07T07:53:48;55.37;;;22.57;;
53145;SDS011;39042;53.150;5.898;2023-12-07T07:56:14;58.47;;;21.93;;
53145;SDS011;39042;53.150;5.898;2023-12-07T07:58:39;39.17;;;15.63;;
53145;SDS011;39042;53.150;5.898;2023-12-07T08:01:05;48.30;;;20.97;;
53145;SDS011;39042;53.150;5.898;2023-12-07T08:03:31;50.35;;;22.02;;
53145;SDS011;39042;53.150;5.898;2023-12-07T08:05:57;55.00;;;22.23;;
53145;SDS011;39042;53.150;5.898;2023-12-07T08:08:23;55.63;;;23.10;;
53145;SDS011;39042;53.150;5.898;2023-12-07T08:10:51;57.35;;;23.52;;
53145;SDS011;39042;53.150;5.898;2023-12-07T08:13:17;52.15;;;21.55;;
53145;SDS011;39042;53.150;5.898;2023-12-07T08:15:43;66.27;;;25.00;;
53145;SDS011;39042;53.150;5.898;2023-12-07T08:18:09;98.97;;;26.33;;
53145;SDS011;39042;53.150;5.898;2023-12-07T08:20:35;108.43;;;27.63;;
53145;SDS011;39042;53.150;5.898;2023-12-07T08:23:01;100.90;;;25.27;;
53145;SDS011;39042;53.150;5.898;2023-12-07T08:25:27;144.63;;;25.80;;
53145;SDS011;39042;53.150;5.898;2023-12-07T08:27:52;109.00;;;25.10;;
53145;SDS011;39042;53.150;5.898;2023-12-07T08:30:18;141.67;;;25.23;;
53145;SDS011;39042;53.150;5.898;2023-12-07T08:32:45;114.13;;;22.38;;
53145;SDS011;39042;53.150;5.898;2023-12-07T08:35:11;85.13;;;21.77;;
53145;SDS011;39042;53.150;5.898;2023-12-07T08:37:37;82.57;;;20.33;;
53145;SDS011;39042;53.150;5.898;2023-12-07T08:40:04;87.18;;;21.48;;
53145;SDS011;39042;53.150;5.898;2023-12-07T08:53:06;92.53;;;28.70;;
53145;SDS011;39042;53.150;5.898;2023-12-07T08:55:50;87.93;;;28.92;;
53145;SDS011;39042;53.150;5.898;2023-12-07T08:58:59;77.60;;;27.77;;
53145;SDS011;39042;53.150;5.898;2023-12-07T09:02:13;60.83;;;22.42;;
53145;SDS011;39042;53.150;5.898;2023-12-07T09:05:01;62.42;;;24.65;;
53145;SDS011;39042;53.150;5.898;2023-12-07T09:07:32;52.92;;;22.42;;
53145;SDS011;39042;53.150;5.898;2023-12-07T09:09:58;57.00;;;23.83;;
53145;SDS011;39042;53.150;5.898;2023-12-07T09:12:35;60.83;;;24.40;;
53145;SDS011;39042;53.150;5.898;2023-12-07T09:15:21;62.35;;;25.58;;
53145;SDS011;39042;53.150;5.898;2023-12-07T09:18:00;59.65;;;24.63;;
53145;SDS011;39042;53.150;5.898;2023-12-07T09:20:38;59.67;;;24.60;;
53145;SDS011;39042;53.150;5.898;2023-12-07T09:23:12;63.00;;;26.10;;
53145;SDS011;39042;53.150;5.898;2023-12-07T09:29:08;64.72;;;26.70;;
53145;SDS011;39042;53.150;5.898;2023-12-07T09:31:45;62.58;;;27.13;;
53145;SDS011;39042;53.150;5.898;2023-12-07T09:34:41;62.50;;;27.67;;
53145;SDS011;39042;53.150;5.898;2023-12-07T09:37:55;61.83;;;26.55;;
53145;SDS011;39042;53.150;5.898;2023-12-07T09:48:38;61.13;;;26.58;;
53145;SDS011;39042;53.150;5.898;2023-12-07T10:03:35;57.85;;;27.15;;
53145;SDS011;39042;53.150;5.898;2023-12-07T10:15:11;57.28;;;26.05;;
53145;SDS011;39042;53.150;5.898;2023-12-07T10:46:45;51.53;;;24.83;;
53145;SDS011;39042;53.150;5.898;2023-12-07T10:53:51;51.97;;;24.40;;
53145;SDS011;39042;53.150;5.898;2023-12-07T10:57:26;56.45;;;25.55;;
53145;SDS011;39042;53.150;5.898;2023-12-07T11:00:19;53.85;;;25.67;;
53145;SDS011;39042;53.150;5.898;2023-12-07T11:03:43;52.67;;;24.45;;
53145;SDS011;39042;53.150;5.898;2023-12-07T11:06:23;49.40;;;24.95;;
53145;SDS011;39042;53.150;5.898;2023-12-07T11:09:46;49.80;;;23.90;;
53145;SDS011;39042;53.150;5.898;2023-12-07T11:28:13;46.22;;;23.15;;
53145;SDS011;39042;53.150;5.898;2023-12-07T11:30:42;45.03;;;23.27;;
53145;SDS011;39042;53.150;5.898;2023-12-07T11:33:20;45.70;;;23.30;;
53145;SDS011;39042;53.150;5.898;2023-12-07T11:36:31;49.33;;;23.25;;
53145;SDS011;39042;53.150;5.898;2023-12-07T11:39:29;46.03;;;22.23;;
53145;SDS011;39042;53.150;5.898;2023-12-07T11:41:40;42.42;;;22.27;;
53145;SDS011;39042;53.150;5.898;2023-12-07T11:44:25;44.10;;;24.67;;
53145;SDS011;39042;53.150;5.898;2023-12-07T11:47:03;42.80;;;22.25;;
53145;SDS011;39042;53.150;5.898;2023-12-07T11:49:30;43.08;;;22.88;;
53145;SDS011;39042;53.150;5.898;2023-12-07T11:52:12;43.35;;;23.25;;
53145;SDS011;39042;53.150;5.898;2023-12-07T11:55:36;40.35;;;22.60;;
53145;SDS011;39042;53.150;5.898;2023-12-07T11:58:11;44.35;;;22.88;;
53145;SDS011;39042;53.150;5.898;2023-12-07T12:00:43;41.55;;;22.60;;
53145;SDS011;39042;53.150;5.898;2023-12-07T12:03:31;42.83;;;22.00;;
53145;SDS011;39042;53.150;5.898;2023-12-07T12:06:01;43.28;;;22.98;;
53145;SDS011;39042;53.150;5.898;2023-12-07T12:09:02;43.63;;;22.15;;
53145;SDS011;39042;53.150;5.898;2023-12-07T12:11:53;35.40;;;19.73;;
53145;SDS011;39042;53.150;5.898;2023-12-07T12:18:48;90.93;;;22.90;;
53145;SDS011;39042;53.150;5.898;2023-12-07T12:24:42;102.75;;;21.45;;
53145;SDS011;39042;53.150;5.898;2023-12-07T12:27:11;141.02;;;29.80;;
53145;SDS011;39042;53.150;5.898;2023-12-07T12:29:52;74.57;;;23.35;;
53145;SDS011;39042;53.150;5.898;2023-12-07T12:32:18;180.90;;;32.17;;
53145;SDS011;39042;53.150;5.898;2023-12-07T12:34:51;159.77;;;30.75;;
53145;SDS011;39042;53.150;5.898;2023-12-07T12:38:20;152.82;;;26.42;;
53145;SDS011;39042;53.150;5.898;2023-12-07T12:40:46;202.38;;;31.85;;
53145;SDS011;39042;53.150;5.898;2023-12-07T12:43:12;109.67;;;23.40;;
53145;SDS011;39042;53.150;5.898;2023-12-07T12:45:38;110.70;;;22.03;;
53145;SDS011;39042;53.150;5.898;2023-12-07T12:48:04;140.98;;;24.85;;
53145;SDS011;39042;53.150;5.898;2023-12-07T12:53:10;103.88;;;24.27;;
53145;SDS011;39042;53.150;5.898;2023-12-07T12:55:39;185.85;;;33.55;;
53145;SDS011;39042;53.150;5.898;2023-12-07T12:58:07;90.75;;;22.55;;
53145;SDS011;39042;53.150;5.898;2023-12-07T13:00:34;130.45;;;28.80;;
53145;SDS011;39042;53.150;5.898;2023-12-07T13:03:04;113.82;;;24.60;;
53145;SDS011;39042;53.150;5.898;2023-12-07T13:07:58;124.88;;;26.42;;
53145;SDS011;39042;53.150;5.898;2023-12-07T13:10:27;170.75;;;33.05;;
53145;SDS011;39042;53.150;5.898;2023-12-07T13:12:54;141.05;;;29.60;;
53145;SDS011;39042;53.150;5.898;2023-12-07T13:15:21;86.50;;;26.50;;
53145;SDS011;39042;53.150;5.898;2023-12-07T13:17:47;113.88;;;28.58;;
53145;SDS011;39042;53.150;5.898;2023-12-07T13:20:13;92.67;;;24.07;;
53145;SDS011;39042;53.150;5.898;2023-12-07T13:22:42;131.57;;;30.13;;
53145;SDS011;39042;53.150;5.898;2023-12-07T13:25:09;138.63;;;32.25;;
53145;SDS011;39042;53.150;5.898;2023-12-07T13:27:35;105.03;;;25.27;;
53145;SDS011;39042;53.150;5.898;2023-12-07T13:30:02;82.85;;;23.92;;
53145;SDS011;39042;53.150;5.898;2023-12-07T13:32:34;88.68;;;24.25;;
53145;SDS011;39042;53.150;5.898;2023-12-07T13:35:05;78.07;;;24.35;;
53145;SDS011;39042;53.150;5.898;2023-12-07T13:37:32;86.97;;;24.00;;
53145;SDS011;39042;53.150;5.898;2023-12-07T13:39:59;136.68;;;28.00;;
53145;SDS011;39042;53.150;5.898;2023-12-07T13:42:25;105.70;;;25.27;;
53145;SDS011;39042;53.150;5.898;2023-12-07T13:44:56;94.43;;;25.08;;
53145;SDS011;39042;53.150;5.898;2023-12-07T13:47:23;138.13;;;30.33;;
53145;SDS011;39042;53.150;5.898;2023-12-07T13:50:00;74.35;;;23.92;;
53145;SDS011;39042;53.150;5.898;2023-12-07T13:52:26;112.35;;;26.15;;
53145;SDS011;39042;53.150;5.898;2023-12-07T13:54:54;95.18;;;24.02;;
53145;SDS011;39042;53.150;5.898;2023-12-07T13:57:20;64.10;;;19.95;;
53145;SDS011;39042;53.150;5.898;2023-12-07T13:59:49;81.38;;;25.08;;
53145;SDS011;39042;53.150;5.898;2023-12-07T14:02:16;73.90;;;24.42;;
53145;SDS011;39042;53.150;5.898;2023-12-07T14:04:43;74.03;;;24.10;;
53145;SDS011;39042;53.150;5.898;2023-12-07T14:07:12;63.30;;;23.00;;
53145;SDS011;39042;53.150;5.898;2023-12-07T14:09:40;73.35;;;24.20;;
53145;SDS011;39042;53.150;5.898;2023-12-07T14:12:08;75.88;;;27.10;;
53145;SDS011;39042;53.150;5.898;2023-12-07T14:14:36;58.90;;;23.85;;
53145;SDS011;39042;53.150;5.898;2023-12-07T14:17:02;90.28;;;26.23;;
53145;SDS011;39042;53.150;5.898;2023-12-07T14:19:28;58.22;;;23.58;;
53145;SDS011;39042;53.150;5.898;2023-12-07T14:21:54;75.78;;;25.10;;
53145;SDS011;39042;53.150;5.898;2023-12-07T14:24:21;59.88;;;23.63;;
53145;SDS011;39042;53.150;5.898;2023-12-07T14:26:48;61.17;;;23.83;;
53145;SDS011;39042;53.150;5.898;2023-12-07T14:29:14;48.67;;;18.73;;
53145;SDS011;39042;53.150;5.898;2023-12-07T14:31:43;60.45;;;23.20;;
53145;SDS011;39042;53.150;5.898;2023-12-07T14:34:10;63.05;;;24.60;;
53145;SDS011;39042;53.150;5.898;2023-12-07T14:36:38;49.20;;;22.23;;
53145;SDS011;39042;53.150;5.898;2023-12-07T14:39:07;50.67;;;20.67;;
53145;SDS011;39042;53.150;5.898;2023-12-07T14:41:33;57.78;;;23.38;;
53145;SDS011;39042;53.150;5.898;2023-12-07T14:43:59;57.83;;;23.33;;
53145;SDS011;39042;53.150;5.898;2023-12-07T14:46:25;67.13;;;25.92;;
53145;SDS011;39042;53.150;5.898;2023-12-07T14:48:51;53.58;;;23.27;;
53145;SDS011;39042;53.150;5.898;2023-12-07T14:51:20;49.70;;;22.83;;
53145;SDS011;39042;53.150;5.898;2023-12-07T14:53:47;55.85;;;24.60;;
53145;SDS011;39042;53.150;5.898;2023-12-07T14:56:12;62.37;;;25.33;;
53145;SDS011;39042;53.150;5.898;2023-12-07T14:58:38;60.28;;;24.38;;
53145;SDS011;39042;53.150;5.898;2023-12-07T15:01:05;66.22;;;25.38;;
53145;SDS011;39042;53.150;5.898;2023-12-07T15:03:31;69.28;;;25.67;;
53145;SDS011;39042;53.150;5.898;2023-12-07T15:05:57;59.53;;;23.30;;
53145;SDS011;39042;53.150;5.898;2023-12-07T15:08:23;60.90;;;24.93;;
53145;SDS011;39042;53.150;5.898;2023-12-07T15:10:49;78.17;;;26.70;;
53145;SDS011;39042;53.150;5.898;2023-12-07T15:13:18;68.70;;;26.20;;
53145;SDS011;39042;53.150;5.898;2023-12-07T15:15:44;67.75;;;25.17;;
53145;SDS011;39042;53.150;5.898;2023-12-07T15:18:10;101.55;;;29.70;;
53145;SDS011;39042;53.150;5.898;2023-12-07T15:20:37;75.67;;;26.90;;
53145;SDS011;39042;53.150;5.898;2023-12-07T15:23:03;75.45;;;27.38;;
53145;SDS011;39042;53.150;5.898;2023-12-07T15:25:30;111.95;;;30.80;;
53145;SDS011;39042;53.150;5.898;2023-12-07T15:27:56;87.73;;;28.73;;
53145;SDS011;39042;53.150;5.898;2023-12-07T15:30:23;100.43;;;31.73;;
53145;SDS011;39042;53.150;5.898;2023-12-07T15:32:49;84.97;;;28.98;;
53145;SDS011;39042;53.150;5.898;2023-12-07T15:35:16;86.88;;;24.77;;
53145;SDS011;39042;53.150;5.898;2023-12-07T15:37:42;87.28;;;29.30;;
53145;SDS011;39042;53.150;5.898;2023-12-07T15:40:08;121.13;;;33.42;;
53145;SDS011;39042;53.150;5.898;2023-12-07T15:42:38;107.70;;;31.45;;
53145;SDS011;39042;53.150;5.898;2023-12-07T15:45:05;96.70;;;28.70;;
53145;SDS011;39042;53.150;5.898;2023-12-07T15:47:33;90.93;;;28.73;;
53145;SDS011;39042;53.150;5.898;2023-12-07T15:49:59;91.30;;;29.35;;
53145;SDS011;39042;53.150;5.898;2023-12-07T15:52:25;71.72;;;22.73;;
53145;SDS011;39042;53.150;5.898;2023-12-07T15:54:51;82.70;;;28.63;;
53145;SDS011;39042;53.150;5.898;2023-12-07T15:57:18;88.07;;;28.27;;
53145;SDS011;39042;53.150;5.898;2023-12-07T15:59:44;101.80;;;29.80;;
53145;SDS011;39042;53.150;5.898;2023-12-07T16:02:10;97.13;;;28.33;;
53145;SDS011;39042;53.150;5.898;2023-12-07T16:04:37;110.63;;;30.00;;
53145;SDS011;39042;53.150;5.898;2023-12-07T16:09:31;91.60;;;27.27;;
53145;SDS011;39042;53.150;5.898;2023-12-07T16:11:57;98.07;;;29.58;;
53145;SDS011;39042;53.150;5.898;2023-12-07T16:14:24;104.45;;;29.58;;
53145;SDS011;39042;53.150;5.898;2023-12-07T16:16:49;111.33;;;31.73;;
53145;SDS011;39042;53.150;5.898;2023-12-07T16:19:16;123.70;;;31.42;;
53145;SDS011;39042;53.150;5.898;2023-12-07T16:21:42;111.13;;;29.55;;
53145;SDS011;39042;53.150;5.898;2023-12-07T16:24:08;115.63;;;30.67;;
53145;SDS011;39042;53.150;5.898;2023-12-07T16:26:36;117.85;;;31.45;;
53145;SDS011;39042;53.150;5.898;2023-12-07T16:29:03;124.10;;;34.78;;
53145;SDS011;39042;53.150;5.898;2023-12-07T16:31:29;103.32;;;30.80;;
53145;SDS011;39042;53.150;5.898;2023-12-07T16:33:54;139.10;;;39.30;;
53145;SDS011;39042;53.150;5.898;2023-12-07T16:36:20;132.53;;;35.00;;
53145;SDS011;39042;53.150;5.898;2023-12-07T16:38:46;121.35;;;33.75;;
53145;SDS011;39042;53.150;5.898;2023-12-07T16:41:12;122.32;;;32.55;;
53145;SDS011;39042;53.150;5.898;2023-12-07T16:43:38;134.53;;;35.63;;
53145;SDS011;39042;53.150;5.898;2023-12-07T16:46:05;120.90;;;31.50;;
53145;SDS011;39042;53.150;5.898;2023-12-07T16:48:35;121.82;;;34.08;;
53145;SDS011;39042;53.150;5.898;2023-12-07T16:51:01;130.00;;;34.45;;
53145;SDS011;39042;53.150;5.898;2023-12-07T16:53:31;126.25;;;35.92;;
53145;SDS011;39042;53.150;5.898;2023-12-07T16:55:59;120.80;;;34.78;;
53145;SDS011;39042;53.150;5.898;2023-12-07T16:58:24;120.05;;;34.95;;
53145;SDS011;39042;53.150;5.898;2023-12-07T17:00:50;111.23;;;34.60;;
53145;SDS011;39042;53.150;5.898;2023-12-07T17:03:16;88.30;;;25.57;;
53145;SDS011;39042;53.150;5.898;2023-12-07T17:05:44;108.53;;;33.63;;
53145;SDS011;39042;53.150;5.898;2023-12-07T17:08:10;106.77;;;33.37;;
53145;SDS011;39042;53.150;5.898;2023-12-07T17:10:37;99.30;;;31.52;;
53145;SDS011;39042;53.150;5.898;2023-12-07T17:13:02;101.20;;;32.83;;